createdAt,value
2023-09-06T00:00:29.368Z,4.25
2023-09-06T00:04:11.978Z,4.50
2023-09-06T00:07:37.975Z,5.45
2023-09-06T00:11:05.681Z,6.00
2023-09-06T00:14:33.837Z,5.10
2023-09-06T00:18:00.764Z,4.85
2023-09-06T00:21:28.308Z,4.88
2023-09-06T00:24:59.655Z,4.45
2023-09-06T00:28:26.278Z,4.93
2023-09-06T00:31:58.948Z,5.78
2023-09-06T00:35:25.464Z,4.20
2023-09-06T00:38:51.566Z,6.35
2023-09-06T00:42:17.205Z,5.22
2023-09-06T00:45:45.960Z,6.00
2023-09-06T00:49:14.348Z,3.75
2023-09-06T00:52:41.236Z,4.45
2023-09-06T00:56:10.349Z,6.10
2023-09-06T00:59:37.462Z,4.78
2023-09-06T01:03:04.657Z,5.65
2023-09-06T01:06:35.144Z,7.32
2023-09-06T01:10:00.784Z,5.07
2023-09-06T01:13:26.934Z,5.82
2023-09-06T01:16:55.925Z,5.93
2023-09-06T01:20:28.410Z,5.78
2023-09-06T01:23:58.546Z,5.07
2023-09-06T01:27:24.820Z,6.72
2023-09-06T01:30:51.195Z,4.93
2023-09-06T01:34:17.315Z,6.68
2023-09-06T01:37:44.529Z,5.53
2023-09-06T01:41:17.059Z,5.13
2023-09-06T01:44:46.831Z,5.32
2023-09-06T01:48:14.647Z,6.40
2023-09-06T01:51:40.406Z,4.72
2023-09-06T01:55:06.773Z,6.82
2023-09-06T01:58:35.775Z,6.63
2023-09-06T02:02:03.179Z,7.60
2023-09-06T02:05:28.639Z,4.45
2023-09-06T02:08:56.534Z,8.55
2023-09-06T02:12:23.362Z,5.80
2023-09-06T02:15:52.536Z,4.53
2023-09-06T02:19:18.606Z,5.53
2023-09-06T02:22:48.704Z,5.25
2023-09-06T02:26:15.334Z,6.80
2023-09-06T02:29:41.467Z,5.82
2023-09-06T02:33:13.196Z,5.20
2023-09-06T02:36:39.571Z,6.15
2023-09-06T02:40:08.249Z,4.75
2023-09-06T02:43:35.044Z,5.32
2023-09-06T02:47:11.075Z,5.72
2023-09-06T02:50:41.372Z,5.28
2023-09-06T02:54:07.096Z,6.53
2023-09-06T02:57:36.470Z,4.45
2023-09-06T03:01:07.946Z,6.57
2023-09-06T03:04:39.318Z,6.35
2023-09-06T03:08:12.579Z,7.47
2023-09-06T03:11:38.966Z,6.55
2023-09-06T03:15:07.039Z,6.18
2023-09-06T03:18:33.086Z,6.65
2023-09-06T03:21:59.503Z,6.72
2023-09-06T03:25:28.447Z,6.78
2023-09-06T03:28:56.748Z,7.32
2023-09-06T03:32:26.549Z,5.35
2023-09-06T03:35:54.763Z,4.57
2023-09-06T03:39:20.953Z,5.22
2023-09-06T03:42:49.061Z,6.88
2023-09-06T03:46:23.815Z,7.43
2023-09-06T03:49:49.444Z,6.85
2023-09-06T03:53:16.483Z,6.88
2023-09-06T03:56:43.209Z,7.65
2023-09-06T04:00:26.494Z,9.02
2023-09-06T04:03:52.609Z,7.57
2023-09-06T04:07:20.723Z,6.00
2023-09-06T04:10:46.245Z,7.95
2023-09-06T04:14:12.314Z,5.75
2023-09-06T04:17:41.861Z,7.57
2023-09-06T04:21:10.236Z,7.45
2023-09-06T04:24:36.676Z,5.10
2023-09-06T04:28:03.070Z,5.22
2023-09-06T04:31:28.790Z,11.00
2023-09-06T04:34:57.993Z,5.43
2023-09-06T04:38:25.145Z,7.18
2023-09-06T04:41:51.828Z,7.22
2023-09-06T04:45:17.395Z,5.55
2023-09-06T04:48:43.995Z,5.85
2023-09-06T04:52:12.596Z,5.63
2023-09-06T04:55:41.938Z,5.78
2023-09-06T04:59:09.921Z,6.50
2023-09-06T05:02:36.080Z,5.53
2023-09-06T05:06:02.457Z,6.10
2023-09-06T05:09:32.875Z,6.75
2023-09-06T05:12:58.598Z,8.23
2023-09-06T05:16:26.047Z,6.80
2023-09-06T05:19:57.235Z,6.40
2023-09-06T05:23:23.533Z,6.65
2023-09-06T05:26:52.070Z,8.07
2023-09-06T05:30:18.739Z,5.60
2023-09-06T05:33:44.848Z,6.32
2023-09-06T05:37:11.000Z,7.20
2023-09-06T05:40:37.469Z,5.63
2023-09-06T05:44:07.771Z,7.05
2023-09-06T05:47:37.416Z,8.00
2023-09-06T05:51:03.574Z,5.72
2023-09-06T05:54:29.126Z,6.50
2023-09-06T05:57:59.544Z,6.30
2023-09-06T06:01:28.215Z,8.75
2023-09-06T06:04:54.454Z,6.45
2023-09-06T06:08:20.193Z,5.95
2023-09-06T06:11:46.393Z,7.18
2023-09-06T06:15:13.720Z,9.32
2023-09-06T06:18:42.472Z,9.20
2023-09-06T06:22:08.308Z,8.70
2023-09-06T06:25:34.485Z,6.35
2023-09-06T06:29:04.339Z,7.05
2023-09-06T06:32:30.519Z,8.57
2023-09-06T06:35:59.197Z,7.30
2023-09-06T06:39:27.963Z,6.32
2023-09-06T06:42:53.565Z,5.75
2023-09-06T06:46:31.206Z,6.13
2023-09-06T06:50:04.806Z,6.78
2023-09-06T06:53:33.551Z,5.95
2023-09-06T06:56:59.204Z,7.72
2023-09-06T07:00:26.072Z,5.88
2023-09-06T07:03:52.709Z,8.27
2023-09-06T07:07:18.933Z,6.35
2023-09-06T07:10:47.623Z,7.60
2023-09-06T07:14:13.792Z,9.20
2023-09-06T07:17:40.843Z,7.30
2023-09-06T07:21:08.322Z,8.60
2023-09-06T07:24:34.044Z,7.32
2023-09-06T07:28:04.158Z,10.15
2023-09-06T07:31:29.701Z,6.25
2023-09-06T07:34:57.098Z,8.02
2023-09-06T07:38:23.085Z,7.50
2023-09-06T07:41:50.241Z,7.60
2023-09-06T07:45:19.288Z,6.45
2023-09-06T07:48:45.619Z,7.38
2023-09-06T07:52:11.715Z,10.95
2023-09-06T07:55:39.264Z,8.77
2023-09-06T07:59:05.139Z,8.38
2023-09-06T08:02:35.173Z,7.38
2023-09-06T08:06:00.931Z,6.00
2023-09-06T08:09:28.762Z,5.97
2023-09-06T08:12:55.105Z,9.57
2023-09-06T08:16:21.342Z,6.22
2023-09-06T08:19:51.792Z,6.32
2023-09-06T08:23:23.306Z,8.25
2023-09-06T08:26:51.599Z,7.20
2023-09-06T08:30:18.825Z,8.48
2023-09-06T08:33:46.984Z,7.75
2023-09-06T08:37:18.157Z,6.57
2023-09-06T08:40:45.037Z,8.05
2023-09-06T08:44:14.783Z,8.98
2023-09-06T08:47:41.009Z,9.65
2023-09-06T08:51:08.396Z,5.47
2023-09-06T08:54:40.384Z,6.72
2023-09-06T08:58:09.880Z,7.93
2023-09-06T09:01:35.499Z,7.22
2023-09-06T09:05:17.531Z,7.20
2023-09-06T09:08:45.780Z,7.38
2023-09-06T09:12:14.972Z,6.90
2023-09-06T09:15:40.772Z,8.40
2023-09-06T09:19:08.174Z,8.50
2023-09-06T09:22:36.572Z,7.80
2023-09-06T09:26:04.493Z,7.75
2023-09-06T09:29:33.748Z,7.70
2023-09-06T09:33:05.885Z,9.55
2023-09-06T09:36:40.303Z,6.95
2023-09-06T09:40:19.106Z,6.55
2023-09-06T09:43:45.006Z,8.30
2023-09-06T09:47:43.144Z,6.53
2023-09-06T09:51:06.555Z,8.45
2023-09-06T09:54:35.502Z,7.85
2023-09-06T09:58:06.961Z,6.18
2023-09-06T10:01:33.102Z,7.15
2023-09-06T10:05:04.238Z,7.25
2023-09-06T10:08:30.918Z,5.75
2023-09-06T10:11:57.576Z,4.90
2023-09-06T10:15:26.495Z,6.20
2023-09-06T10:18:52.341Z,5.30
2023-09-06T10:22:24.741Z,5.45
2023-09-06T10:29:22.739Z,7.20
2023-09-06T10:32:50.074Z,7.28
2023-09-06T10:36:19.791Z,6.30
2023-09-06T10:39:55.542Z,7.75
2023-09-06T10:43:24.386Z,7.00
2023-09-06T10:46:54.176Z,5.03
2023-09-06T10:50:21.564Z,6.15
2023-09-06T10:53:51.964Z,6.20
2023-09-06T10:57:25.128Z,5.30
2023-09-06T11:01:10.834Z,5.32
2023-09-06T11:04:38.386Z,5.40
2023-09-06T11:08:16.552Z,5.47
2023-09-06T11:11:43.300Z,6.07
2023-09-06T11:15:12.906Z,6.22
2023-09-06T11:18:49.307Z,6.32
2023-09-06T11:22:15.464Z,5.65
2023-09-06T11:25:41.548Z,6.03
2023-09-06T11:29:09.781Z,5.47
2023-09-06T11:32:41.885Z,7.03
2023-09-06T11:36:07.881Z,5.82
2023-09-06T11:39:36.177Z,6.93
2023-09-06T11:43:04.151Z,6.80
2023-09-06T11:46:37.785Z,5.70
2023-09-06T11:50:08.419Z,5.60
2023-09-06T11:53:43.395Z,5.60
2023-09-06T11:57:12.256Z,5.78
2023-09-06T12:00:44.730Z,7.90
2023-09-06T12:04:11.730Z,5.13
2023-09-06T12:07:41.868Z,7.35
2023-09-06T12:11:12.575Z,5.47
2023-09-06T12:14:40.267Z,5.25
2023-09-06T12:18:08.511Z,5.63
2023-09-06T12:21:35.778Z,5.05
2023-09-06T12:25:04.651Z,4.97
2023-09-06T12:28:33.950Z,5.50
2023-09-06T12:32:05.632Z,5.28
2023-09-06T12:35:37.337Z,6.90
2023-09-06T12:39:15.357Z,6.90
2023-09-06T12:42:53.847Z,6.10
2023-09-06T12:46:19.769Z,5.82
2023-09-06T12:49:47.009Z,6.03
2023-09-06T12:53:15.536Z,6.40
2023-09-06T12:56:41.980Z,5.25
2023-09-06T13:00:11.843Z,6.95
2023-09-06T13:03:37.968Z,5.32
2023-09-06T13:07:06.358Z,6.18
2023-09-06T13:10:37.623Z,4.97
2023-09-06T13:14:03.332Z,6.25
2023-09-06T13:17:33.284Z,6.13
2023-09-06T13:20:59.602Z,5.50
2023-09-06T13:24:25.836Z,7.43
2023-09-06T13:27:53.417Z,7.82
2023-09-06T13:31:19.999Z,5.18
2023-09-06T13:34:48.277Z,5.60
2023-09-06T13:38:14.362Z,5.80
2023-09-06T13:41:40.184Z,4.80
2023-09-06T13:45:13.096Z,6.10
2023-09-06T13:48:38.960Z,5.13
2023-09-06T13:52:13.490Z,6.15
2023-09-06T13:55:41.721Z,6.68
2023-09-06T13:59:09.638Z,6.38
2023-09-06T14:02:36.811Z,5.95
2023-09-06T14:06:05.654Z,4.90
2023-09-06T14:09:35.390Z,5.32
2023-09-06T14:13:02.161Z,5.53
2023-09-06T14:16:27.748Z,6.53
2023-09-06T14:19:53.838Z,6.25
2023-09-06T14:23:21.860Z,6.30
2023-09-06T14:26:52.387Z,6.88
2023-09-06T14:30:18.929Z,4.75
2023-09-06T14:33:45.079Z,6.15
2023-09-06T14:37:11.820Z,6.00
2023-09-06T14:40:43.294Z,6.10
2023-09-06T14:44:15.588Z,6.88
2023-09-06T14:47:43.553Z,5.63
2023-09-06T14:51:09.526Z,8.10
2023-09-06T14:54:36.074Z,6.18
2023-09-06T14:58:05.249Z,7.00
2023-09-06T15:01:35.027Z,6.93
2023-09-06T15:05:02.673Z,7.15
2023-09-06T15:08:29.889Z,7.53
2023-09-06T15:11:56.698Z,8.10
2023-09-06T15:15:22.998Z,5.63
2023-09-06T15:18:52.292Z,7.75
2023-09-06T15:22:29.251Z,8.05
2023-09-06T15:26:04.178Z,7.85
2023-09-06T15:29:30.540Z,7.30
2023-09-06T15:32:56.306Z,6.93
2023-09-06T15:36:27.177Z,7.63
2023-09-06T15:39:55.145Z,8.30
2023-09-06T15:43:21.844Z,8.80
2023-09-06T15:46:48.560Z,11.30
2023-09-06T15:50:17.047Z,9.70
2023-09-06T15:53:50.187Z,8.25
2023-09-06T15:57:16.532Z,10.07
2023-09-06T16:00:42.231Z,9.38
2023-09-06T16:04:11.088Z,11.05
2023-09-06T16:07:37.605Z,9.77
2023-09-06T16:11:06.404Z,10.25
2023-09-06T16:14:34.187Z,10.13
2023-09-06T16:18:02.150Z,10.20
2023-09-06T16:21:33.860Z,8.73
2023-09-06T16:25:05.076Z,9.77
2023-09-06T16:28:34.189Z,10.20
2023-09-06T16:32:00.360Z,10.70
2023-09-06T16:35:28.562Z,9.48
2023-09-06T16:38:55.252Z,8.07
2023-09-06T16:42:25.100Z,12.25
2023-09-06T16:45:54.309Z,10.57
2023-09-06T16:49:20.277Z,8.18
2023-09-06T16:52:48.981Z,11.02
2023-09-06T16:56:16.658Z,12.38
2023-09-06T16:59:42.726Z,12.65
2023-09-06T17:03:11.330Z,11.20
2023-09-06T17:06:38.885Z,11.95
2023-09-06T17:10:09.825Z,10.07
2023-09-06T17:13:36.502Z,15.50
2023-09-06T17:17:02.125Z,9.38
2023-09-06T17:20:30.931Z,9.85
2023-09-06T17:24:03.417Z,11.43
2023-09-06T17:27:34.064Z,10.60
2023-09-06T17:31:01.484Z,10.65
2023-09-06T17:34:27.875Z,10.52
2023-09-06T17:37:56.389Z,15.13
2023-09-06T17:41:24.897Z,12.65
2023-09-06T17:44:51.937Z,12.77
2023-09-06T17:48:19.977Z,13.60
2023-09-06T17:51:46.433Z,16.20
2023-09-06T17:55:17.827Z,16.88
2023-09-06T17:58:44.885Z,14.13
2023-09-06T18:02:11.063Z,14.05
2023-09-06T18:05:40.151Z,13.57
2023-09-06T18:09:09.196Z,10.95
2023-09-06T18:12:38.513Z,13.98
2023-09-06T18:16:08.004Z,12.30
2023-09-06T18:19:33.688Z,12.35
2023-09-06T18:23:02.189Z,13.45
2023-09-06T18:26:27.719Z,12.40
2023-09-06T18:29:59.227Z,17.23
2023-09-06T18:33:25.340Z,11.27
2023-09-06T18:36:51.906Z,13.57
2023-09-06T18:40:20.567Z,10.63
2023-09-06T18:43:46.575Z,12.90
2023-09-06T18:47:15.981Z,12.23
2023-09-06T18:50:44.155Z,13.68
2023-09-06T18:54:09.744Z,11.75
2023-09-06T18:57:45.780Z,14.18
2023-09-06T19:01:21.763Z,12.50
2023-09-06T19:04:52.145Z,13.07
2023-09-06T19:08:20.150Z,12.45
2023-09-06T19:11:48.143Z,13.50
2023-09-06T19:15:15.371Z,12.20
2023-09-06T19:18:43.116Z,11.43
2023-09-06T19:22:12.893Z,13.63
2023-09-06T19:25:43.580Z,14.13
2023-09-06T19:29:10.687Z,13.82
2023-09-06T19:32:36.988Z,12.98
2023-09-06T19:36:02.457Z,12.00
2023-09-06T19:39:31.046Z,11.63
2023-09-06T19:42:56.548Z,14.00
2023-09-06T19:46:23.832Z,13.15
2023-09-06T19:49:49.703Z,13.13
2023-09-06T19:53:15.852Z,15.63
2023-09-06T19:56:45.821Z,11.88
2023-09-06T20:00:15.274Z,13.05
2023-09-06T20:03:40.771Z,14.07
2023-09-06T20:07:16.716Z,12.38
2023-09-06T20:10:50.800Z,11.93
2023-09-06T20:14:20.015Z,14.02
2023-09-06T20:17:45.581Z,12.45
2023-09-06T20:21:11.679Z,15.32
2023-09-06T20:24:37.436Z,14.48
2023-09-06T20:28:03.558Z,14.48
2023-09-06T20:31:31.950Z,15.07
2023-09-06T20:34:58.185Z,12.82
2023-09-06T20:38:23.824Z,14.63
2023-09-06T20:41:50.639Z,16.38
2023-09-06T20:45:16.232Z,16.90
2023-09-06T20:48:47.466Z,15.77
2023-09-06T20:52:14.776Z,19.08
2023-09-06T20:55:41.168Z,15.63
2023-09-06T20:59:07.000Z,17.17
2023-09-06T21:02:32.921Z,17.48
2023-09-06T21:06:04.438Z,20.73
2023-09-06T21:09:30.587Z,16.02
2023-09-06T21:12:56.095Z,16.40
2023-09-06T21:16:22.061Z,15.90
2023-09-06T21:19:47.570Z,15.23
2023-09-06T21:23:16.613Z,16.90
2023-09-06T21:26:42.335Z,14.30
2023-09-06T21:30:09.081Z,16.70
2023-09-06T21:33:34.893Z,15.90
2023-09-06T21:37:00.982Z,15.43
2023-09-06T21:40:29.225Z,19.20
2023-09-06T21:43:55.087Z,18.75
2023-09-06T21:47:20.635Z,14.88
2023-09-06T21:50:51.182Z,13.80
2023-09-06T21:54:16.688Z,17.88
2023-09-06T21:57:58.867Z,17.45
2023-09-06T22:01:30.723Z,18.63
2023-09-06T22:04:57.993Z,15.65
2023-09-06T22:08:23.895Z,22.95
2023-09-06T22:11:49.815Z,16.70
2023-09-06T22:15:18.206Z,17.83
2023-09-06T22:18:44.540Z,16.60
2023-09-06T22:22:10.118Z,22.35
2023-09-06T22:25:36.029Z,22.48
2023-09-06T22:29:01.407Z,20.08
2023-09-06T22:32:30.121Z,18.75
2023-09-06T22:35:55.624Z,19.20
2023-09-06T22:39:21.704Z,17.52
2023-09-06T22:42:47.238Z,18.15
2023-09-06T22:46:13.520Z,15.45
2023-09-06T22:49:42.431Z,16.98
2023-09-06T22:53:08.888Z,19.80
2023-09-06T22:56:36.979Z,14.55
2023-09-06T23:00:03.085Z,14.63
2023-09-06T23:03:29.022Z,14.32
2023-09-06T23:06:58.879Z,17.55
2023-09-06T23:10:24.977Z,17.80
2023-09-06T23:13:50.989Z,13.38
2023-09-06T23:17:18.395Z,14.30
2023-09-06T23:20:48.549Z,15.18
2023-09-06T23:24:16.941Z,12.93
2023-09-06T23:27:47.048Z,14.52
2023-09-06T23:31:15.265Z,18.23
2023-09-06T23:34:45.682Z,16.83
2023-09-06T23:38:12.287Z,18.38
2023-09-06T23:41:43.249Z,14.20
2023-09-06T23:45:10.599Z,17.48
2023-09-06T23:48:36.556Z,17.13
2023-09-06T23:52:02.576Z,16.45
2023-09-06T23:55:29.960Z,15.43
2023-09-06T23:58:58.107Z,18.67
